Los Posos, Valles Caldera, New Mexico Weather observations

Data are for 10 minute period ending at time listed.
 Day   Time   Solar   Ave.   Ave.  Ave.  Vector  Max.   Baro.   Total    
  of    of     Rad.   Air    Rel.  Wind   Wind   Wind  Press.  Precip.   
Year   Day            Temp.  Hum.  Speed  Dir.   Gust                    
2014   (MST)  Kw/m2    F      %     mph   deg.    mph    mb.     in.     
-------------------------------------------------------------------------
 296    0:30   0.00   30.5    94    0.0     0     0.0   99999.0    0.00 
 296    0:40   0.00   30.5    94    0.8   252     3.6   99999.0    0.00 
 296    0:50   0.00   30.6    94    0.6   258     3.0   99999.0    0.00 
 296    1:00   0.00   30.4    94    1.1   245     3.0   99999.0    0.00 
 296    1:10   0.00   30.6    94    0.2   232     1.8   99999.0    0.00 
 296    1:20   0.00   30.5    94    0.9   233     3.0   99999.0    0.00 
 296    1:30   0.00   31.0    95    0.0     0     0.0   99999.0    0.00 
 296    1:40   0.00   31.0    94    0.0     0     0.0   99999.0    0.00 
 296    1:50   0.00   30.2    94    0.0     0     0.0   99999.0    0.00 
 296    2:00   0.00   29.6    94    0.0     0     0.0   99999.0    0.00 
 296    2:10   0.00   29.5    95    1.5   239     3.6   99999.0    0.00 
 296    2:20   0.00   29.4    95    2.4   246     3.6   99999.0    0.00 
 296    2:30   0.00   29.6    95    0.1   243     1.8   99999.0    0.00 
 296    2:40   0.00   29.1    94    0.0     0     0.0   99999.0    0.00 
 296    2:50   0.00   28.9    95    0.0     0     0.0   99999.0    0.00 
 296    3:00   0.00   28.6    95    0.0     0     0.0   99999.0    0.00 
 296    3:10   0.00   28.1    95    0.0     0     0.0   99999.0    0.00 
 296    3:20   0.00   28.2    96    1.6   247     3.6   99999.0    0.00 
 296    3:30   0.00   28.1    96    1.3   248     2.4   99999.0    0.00 
 296    3:40   0.00   28.1    95    0.0     0     0.0   99999.0    0.00 
 296    3:50   0.00   27.6    95    0.1   252     1.8   99999.0    0.00 
 296    4:00   0.00   28.2    96    0.0     0     0.0   99999.0    0.00 
 296    4:10   0.00   28.2    96    0.0     0     0.0   99999.0    0.00 
 296    4:20   0.00   28.2    96    0.0     0     0.0   99999.0    0.00 
 296    4:30   0.00   28.1    96    0.0     0     0.0   99999.0    0.00 
 296    4:40   0.00   27.7    96    0.0     0     0.0   99999.0    0.00 
 296    4:50   0.00   27.6    96    0.0     0     0.0   99999.0    0.00 
 296    5:00   0.00   27.5    96    0.0     0     0.0   99999.0    0.00 
 296    5:10   0.00   27.4    96    1.0   246     3.0   99999.0    0.00 
 296    5:20   0.00   27.5    96    2.5   239     3.6   99999.0    0.00 
 296    5:30   0.00   27.6    96    1.7   241     3.0   99999.0    0.00 
 296    5:40   0.00   27.8    96    0.5   242     2.4   99999.0    0.00 
 296    5:50   0.00   27.9    96    0.4   242     1.8   99999.0    0.00 
 296    6:00   0.00   28.0    96    1.6   242     3.0   99999.0    0.00 
 296    6:10   0.00   27.8    96    0.0   242     1.2   99999.0    0.00 
 296    6:20   0.00   27.3    96    0.4   242     2.4   99999.0    0.00 
 296    6:30   0.01   27.2    96    0.1   242     3.0   99999.0    0.00 
 296    6:40   0.01   27.1    96    0.9   242     3.6   99999.0    0.00 
 296    6:50   0.01   27.5    96    1.0   242     3.0   99999.0    0.00 
 296    7:00   0.01   28.3    96    0.3   242     3.0   99999.0    0.00 
 296    7:10   0.01   28.2    95    0.5   242     3.0   99999.0    0.00 
 296    7:20   0.04   28.3    96    0.2   242     2.4   99999.0    0.00 
 296    7:30   0.08   30.6    96    0.1   242     1.8   99999.0    0.00 
 296    7:40   0.04   33.7    94    0.2    56     2.4   99999.0    0.00 
 296    7:50   0.26   37.5    90    1.6    10     5.4   99999.0    0.00 
 296    8:00   0.29   44.1    77    1.6     5     5.4   99999.0    0.00 
 296    8:10   0.32   49.0    58    4.0   320     8.4   99999.0    0.00 
 296    8:20   0.36   50.7    53    5.2   326     9.0   99999.0    0.00 
 296    8:30   0.39   52.0    48    5.8   323    10.8   99999.0    0.00 
 296    8:40   0.41   51.4    46    7.1   309    11.9   99999.0    0.00 
 296    8:50   0.44   53.2    43    6.5   331    11.9   99999.0    0.00 
 296    9:00   0.47   54.1    40    5.9   326     9.6   99999.0    0.00 
 296    9:10   0.49   53.6    39    5.9   288    10.2   99999.0    0.00 
 296    9:20   0.52   53.3    39    6.4   285    10.2   99999.0    0.00 
 296    9:30   0.54   55.3    36    4.1   311     9.6   99999.0    0.00 
 296    9:40   0.57   56.2    34    5.0   299    10.2   99999.0    0.00 
 296    9:50   0.59   56.4    34    6.4   317    11.3   99999.0    0.00 
 296   10:00   0.61   56.6    34    5.8   294    13.1   99999.0    0.00 
 296   10:10   0.63   57.7    33    6.0   311    13.1   99999.0    0.00 
 296   10:20   0.64   57.7    33    6.9   294    11.9   99999.0    0.00 
 296   10:30   0.66   57.1    32    6.3   303    11.9   99999.0    0.00 
 296   10:40   0.67   58.4    31    5.6   277    10.2   99999.0    0.00 
 296   10:50   0.68   58.8    30    6.0   305    12.5   99999.0    0.00 
 296   11:00   0.69   60.8    28    5.6   324    12.5   99999.0    0.00 
 296   11:10   0.70   60.7    28    5.9   342    13.1   99999.0    0.00 
 296   11:20   0.71   61.6    27    6.6   326    12.5   99999.0    0.00 
 296   11:30   0.72   62.2    27    7.0   355    12.5   99999.0    0.00 
 296   11:40   0.72   61.8    27    4.5   322     9.6   99999.0    0.00 
 296   11:50   0.72   62.9    26    4.0   329     7.8   99999.0    0.00 
 296   12:00   0.72   64.7    24    6.1   351    12.5   99999.0    0.00 
 296   12:10   0.72   61.6    26    6.1   288    12.5   99999.0    0.00 
 296   12:20   0.72   62.7    24    4.3   353    11.3   99999.0    0.00 
 296   12:30   0.72   63.5    22    5.8   316    11.9   99999.0    0.00 
 296   12:40   0.71   63.6    23    6.5   344    13.1   99999.0    0.00 
 296   12:50   0.70   63.5    23    6.2   311    11.9   99999.0    0.00 
 296   13:00   0.69   62.1    24    4.5   269    10.2   99999.0    0.00 
 296   13:10   0.68   63.8    23    6.4   316    12.5   99999.0    0.00 
 296   13:20   0.67   62.8    24    5.4   288    11.9   99999.0    0.00 
 296   13:30   0.65   64.3    24    5.1   325    11.9   99999.0    0.00 
 296   13:40   0.63   64.1    23    5.4   292    11.3   99999.0    0.00 
 296   13:50   0.61   63.3    24    5.8   277    10.2   99999.0    0.00 
 296   14:00   0.59   63.2    24    6.5   261    11.3   99999.0    0.00 
 296   14:10   0.57   65.4    23    6.0   331    11.3   99999.0    0.00 
 296   14:20   0.55   65.7    24    5.4   269    14.3   99999.0    0.00 
 296   14:30   0.51   67.1    22    5.7   316    12.5   99999.0    0.00 
 296   14:40   0.49   66.5    23    5.8   340    11.9   99999.0    0.00 
 296   14:50   0.44   68.4    21    6.7   359    13.7   99999.0    0.00 
 296   15:00   0.38   66.9    23    7.6   327    12.5   99999.0    0.00 
 296   15:10   0.33   65.8    24    8.9   345    12.5   99999.0    0.00 
 296   15:20   0.28   64.9    24    6.9   329    11.3   99999.0    0.00 
 296   15:30   0.23   62.5    26    5.5   287    10.2   99999.0    0.00 
 296   15:40   0.20   61.9    27    5.7   325     9.0   99999.0    0.00 
 296   15:50   0.18   62.8    26    5.5   331     9.6   99999.0    0.00 
 296   16:00   0.17   62.3    26    5.0   323     9.6   99999.0    0.00 
 296   16:10   0.16   62.2    26    5.9   336     9.0   99999.0    0.00 
 296   16:20   0.15   62.4    26    5.4   326     9.6   99999.0    0.00 
 296   16:30   0.14   61.8    26    5.1   327     9.0   99999.0    0.00 
 296   16:40   0.02   58.4    30    5.2   332     7.8   99999.0    0.00 
 296   16:50   0.01   54.4    36    3.1   289     6.6   99999.0    0.00 
 296   17:00   0.01   51.5    40    3.0   297     6.6   99999.0    0.00 
 296   17:10   0.01   50.3    44    2.9   288     5.4   99999.0    0.00 
 296   17:20   0.01   50.5    42    3.1   288     7.2   99999.0    0.00 
 296   17:30   0.00   49.6    45    2.0   238     5.4   99999.0    0.00 
 296   17:40   0.00   46.8    50    2.4   242     4.2   99999.0    0.00 
 296   17:50   0.00   46.3    51    1.7   223     4.2   99999.0    0.00 
 296   18:00   0.00   44.1    55    0.6   204     2.4   99999.0    0.00 
 296   18:10   0.00   43.3    57    2.0   194     3.6   99999.0    0.00 
 296   18:20   0.00   43.0    58    1.5   198     4.2   99999.0    0.00 
 296   18:30   0.00   42.3    59    1.5   206     3.0   99999.0    0.00 
 296   18:40   0.00   41.5    61    1.6   210     3.6   99999.0    0.00 
 296   18:50   0.00   40.0    65    1.5   259     4.2   99999.0    0.00 
 296   19:00   0.00   39.0    67    1.7   244     4.2   99999.0    0.00 
 296   19:10   0.00   38.2    69    0.8   253     2.4   99999.0    0.00 
 296   19:20   0.00   36.8    73    0.7   231     2.4   99999.0    0.00 
 296   19:30   0.00   35.7    77    0.8   245     3.0   99999.0    0.00 
 296   19:40   0.00   35.9    76    1.7   242     3.6   99999.0    0.00 
 296   19:50   0.00   35.7    76    1.6   239     2.4   99999.0    0.00 
 296   20:00   0.00   35.2    77    1.7   246     3.0   99999.0    0.00 
 296   20:10   0.00   34.6    78    1.5   228     3.0   99999.0    0.00 
 296   20:20   0.00   34.7    78    0.0     0     0.0   99999.0    0.00 
 296   20:30   0.00   33.7    81    0.0     0     0.0   99999.0    0.00 
 296   20:40   0.00   33.7    82    0.8   235     2.4   99999.0    0.00 
 296   20:50   0.00   33.5    81    1.4   254     3.0   99999.0    0.00 
 296   21:00   0.00   33.1    83    0.4   244     1.8   99999.0    0.00 
 296   21:10   0.00   33.1    84    0.0     0     0.0   99999.0    0.00 
 296   21:20   0.00   33.0    83    0.0     0     0.0   99999.0    0.00 
 296   21:30   0.00   32.4    83    0.4   241     2.4   99999.0    0.00 
 296   21:40   0.00   31.6    85    0.1   234     1.8   99999.0    0.00 
 296   21:50   0.00   31.7    85    0.2   246     1.8   99999.0    0.00 
 296   22:00   0.00   31.7    86    0.5   248     2.4   99999.0    0.00 
 296   22:10   0.00   31.6    86    0.2   249     1.8   99999.0    0.00 
 296   22:20   0.00   31.2    86    1.0   245     2.4   99999.0    0.00 
 296   22:30   0.00   30.9    86    1.0   252     3.0   99999.0    0.00 
 296   22:40   0.00   30.3    86    0.8   285     2.4   99999.0    0.00 
 296   22:50   0.00   30.3    88    1.2   312     2.4   99999.0    0.00 
 296   23:00   0.00   30.3    86    2.1   246     3.6   99999.0    0.00 
 296   23:10   0.00   30.2    87    1.0   240     3.0   99999.0    0.00 
 296   23:20   0.00   29.7    88    1.8   246     3.0   99999.0    0.00 
 296   23:30   0.00   29.9    88    1.2   245     3.6   99999.0    0.00 
 296   23:40   0.00   29.9    88    2.1   241     3.6   99999.0    0.00 
 296   23:50   0.00   30.3    87    1.7   244     3.0   99999.0    0.00 
 297    0:00   0.00   30.2    86    0.8   232     2.4   99999.0    0.00 
 297    0:10   0.00   29.7    86    0.0     0     0.0   99999.0    0.00 
 297    0:20   0.00   28.9    87    0.2   257     3.0   99999.0    0.00 

Return to Los Posos, Valles Caldera graphs page.


Western Regional Climate Center,wrcc@dri.edu